Time;durP1;ratioP1;P1;durP2;ratioP2;P2;SDS_P1;SDS_P2;PMS_P1;PMS_P2;Temp;Humidity;BMP_temperature;BMP_pressure;BME280_temperature;BME280_humidity;BME280_pressure;Samples;Min_cycle;Max_cycle;Signal;HPM_P1;HPM_P2
2021/01/21 00:01:46;;;;;;;2.74;1.81;;;;;;;18.35;44.52;98806.49;;;;-51
2021/01/21 00:04:46;;;;;;;2.03;1.80;;;;;;;18.33;44.49;98806.76;;;;-51
2021/01/21 00:07:46;;;;;;;3.55;1.68;;;;;;;18.31;44.48;98797.95;;;;-51
2021/01/21 00:10:46;;;;;;;1.77;1.67;;;;;;;18.28;44.51;98802.37;;;;-51
2021/01/21 00:13:46;;;;;;;2.01;1.81;;;;;;;18.26;44.55;98803.38;;;;-51
2021/01/21 00:16:46;;;;;;;1.82;1.65;;;;;;;18.24;44.52;98804.95;;;;-51
2021/01/21 00:19:46;;;;;;;1.94;1.79;;;;;;;18.22;44.52;98799.22;;;;-53
2021/01/21 00:22:46;;;;;;;1.96;1.70;;;;;;;18.20;44.50;98802.83;;;;-53
2021/01/21 00:25:47;;;;;;;1.97;1.73;;;;;;;18.19;44.58;98799.93;;;;-51
2021/01/21 00:28:46;;;;;;;1.86;1.74;;;;;;;18.17;44.52;98802.53;;;;-52
2021/01/21 00:31:46;;;;;;;2.10;1.82;;;;;;;18.15;44.58;98805.32;;;;-52
2021/01/21 00:34:46;;;;;;;1.96;1.77;;;;;;;18.12;44.62;98802.53;;;;-52
2021/01/21 00:37:46;;;;;;;1.74;1.63;;;;;;;18.12;44.55;98804.98;;;;-52
2021/01/21 00:40:46;;;;;;;1.89;1.71;;;;;;;18.09;44.52;98792.68;;;;-52
2021/01/21 00:43:46;;;;;;;1.70;1.60;;;;;;;18.08;44.54;98787.53;;;;-52
2021/01/21 00:46:46;;;;;;;1.75;1.58;;;;;;;18.06;44.58;98788.05;;;;-52
2021/01/21 00:49:46;;;;;;;1.75;1.65;;;;;;;18.03;44.64;98795.54;;;;-52
2021/01/21 00:52:46;;;;;;;1.81;1.66;;;;;;;18.02;44.57;98796.20;;;;-52
2021/01/21 00:55:46;;;;;;;2.00;1.79;;;;;;;18.00;44.55;98795.83;;;;-52
2021/01/21 00:58:46;;;;;;;1.83;1.73;;;;;;;17.98;44.55;98786.61;;;;-51
2021/01/21 01:01:46;;;;;;;2.01;1.80;;;;;;;17.96;44.61;98773.36;;;;-50
2021/01/21 01:04:46;;;;;;;1.79;1.69;;;;;;;17.94;44.58;98761.13;;;;-52
2021/01/21 01:07:46;;;;;;;1.81;1.71;;;;;;;17.93;44.59;98756.15;;;;-52
2021/01/21 01:10:46;;;;;;;1.70;1.60;;;;;;;17.91;44.54;98747.43;;;;-51
2021/01/21 01:13:46;;;;;;;1.90;1.73;;;;;;;17.89;44.53;98747.78;;;;-51
2021/01/21 01:16:46;;;;;;;1.60;1.50;;;;;;;17.87;44.64;98753.55;;;;-52
2021/01/21 01:19:46;;;;;;;1.69;1.59;;;;;;;17.86;44.63;98755.27;;;;-52
2021/01/21 01:22:46;;;;;;;1.81;1.67;;;;;;;17.85;44.61;98754.08;;;;-51
2021/01/21 01:25:46;;;;;;;1.69;1.59;;;;;;;17.83;44.59;98743.48;;;;-51
2021/01/21 01:28:46;;;;;;;1.75;1.63;;;;;;;17.81;44.62;98746.23;;;;-51
2021/01/21 01:31:46;;;;;;;1.93;1.67;;;;;;;17.80;44.56;98736.60;;;;-51
2021/01/21 01:34:46;;;;;;;1.72;1.60;;;;;;;17.79;44.60;98731.45;;;;-51
2021/01/21 01:37:46;;;;;;;1.81;1.69;;;;;;;17.77;44.59;98725.63;;;;-51
2021/01/21 01:40:46;;;;;;;1.71;1.61;;;;;;;17.76;44.67;98729.53;;;;-52
2021/01/21 01:43:47;;;;;;;1.81;1.63;;;;;;;17.75;44.65;98744.03;;;;-51
2021/01/21 01:46:46;;;;;;;1.93;1.76;;;;;;;17.74;44.71;98736.92;;;;-51
2021/01/21 01:49:46;;;;;;;1.73;1.60;;;;;;;17.74;44.61;98733.69;;;;-51
2021/01/21 01:52:46;;;;;;;1.65;1.55;;;;;;;17.70;44.72;98737.48;;;;-51
2021/01/21 01:55:46;;;;;;;1.66;1.56;;;;;;;17.69;44.74;98726.63;;;;-51
2021/01/21 01:58:46;;;;;;;1.69;1.59;;;;;;;17.68;44.67;98732.47;;;;-51
2021/01/21 02:01:46;;;;;;;1.71;1.61;;;;;;;17.67;44.70;98733.96;;;;-51
2021/01/21 02:04:46;;;;;;;1.75;1.65;;;;;;;17.66;44.69;98728.77;;;;-51
2021/01/21 02:07:46;;;;;;;1.69;1.59;;;;;;;17.64;44.75;98733.27;;;;-51
2021/01/21 02:10:46;;;;;;;1.58;1.48;;;;;;;17.63;44.74;98722.41;;;;-51
2021/01/21 02:13:46;;;;;;;1.91;1.69;;;;;;;17.62;44.76;98714.58;;;;-51
2021/01/21 02:16:46;;;;;;;1.75;1.65;;;;;;;17.60;44.78;98711.22;;;;-52
2021/01/21 02:19:46;;;;;;;1.61;1.51;;;;;;;17.58;44.76;98708.24;;;;-52
2021/01/21 02:23:46;;;;;;;1.87;1.73;;;;;;;17.57;44.79;98699.08;;;;-52
2021/01/21 02:26:46;;;;;;;1.56;1.46;;;;;;;17.57;44.80;98693.36;;;;-52
2021/01/21 02:29:46;;;;;;;1.61;1.51;;;;;;;17.55;44.82;98689.89;;;;-52
2021/01/21 02:32:46;;;;;;;1.71;1.61;;;;;;;17.54;44.81;98686.99;;;;-53
2021/01/21 02:35:46;;;;;;;1.80;1.65;;;;;;;17.52;44.80;98677.47;;;;-53
2021/01/21 02:38:46;;;;;;;1.73;1.59;;;;;;;17.52;44.72;98676.17;;;;-54
2021/01/21 02:41:46;;;;;;;1.61;1.51;;;;;;;17.50;44.75;98672.23;;;;-54
2021/01/21 02:44:47;;;;;;;1.97;1.59;;;;;;;17.49;44.74;98665.11;;;;-54
2021/01/21 02:47:46;;;;;;;1.62;1.52;;;;;;;17.47;44.79;98660.95;;;;-54
2021/01/21 02:50:46;;;;;;;1.60;1.50;;;;;;;17.47;44.76;98669.52;;;;-53
2021/01/21 02:53:46;;;;;;;1.63;1.53;;;;;;;17.44;44.75;98662.92;;;;-51
2021/01/21 02:56:46;;;;;;;2.18;1.50;;;;;;;17.44;44.80;98660.16;;;;-51
2021/01/21 02:59:46;;;;;;;2.19;1.60;;;;;;;17.43;44.83;98656.78;;;;-51
2021/01/21 03:02:46;;;;;;;1.61;1.51;;;;;;;17.42;44.82;98658.98;;;;-51
2021/01/21 03:05:46;;;;;;;1.59;1.49;;;;;;;17.41;44.82;98660.15;;;;-51
2021/01/21 03:08:46;;;;;;;1.57;1.47;;;;;;;17.41;44.86;98651.14;;;;-51
2021/01/21 03:11:46;;;;;;;2.01;1.65;;;;;;;17.39;44.85;98649.40;;;;-51
2021/01/21 03:14:46;;;;;;;1.48;1.38;;;;;;;17.38;44.93;98650.30;;;;-51
2021/01/21 03:17:46;;;;;;;1.54;1.44;;;;;;;17.37;44.83;98656.88;;;;-51
2021/01/21 03:20:46;;;;;;;1.58;1.48;;;;;;;17.36;44.84;98655.11;;;;-51
2021/01/21 03:23:46;;;;;;;1.63;1.53;;;;;;;17.35;44.89;98659.75;;;;-51
2021/01/21 03:26:46;;;;;;;1.67;1.57;;;;;;;17.33;44.85;98661.14;;;;-51
2021/01/21 03:29:46;;;;;;;1.57;1.47;;;;;;;17.34;44.89;98661.78;;;;-51
2021/01/21 03:32:46;;;;;;;1.59;1.49;;;;;;;17.32;44.87;98659.86;;;;-51
2021/01/21 03:35:46;;;;;;;1.50;1.40;;;;;;;17.31;44.88;98656.95;;;;-52
2021/01/21 03:38:46;;;;;;;1.70;1.60;;;;;;;17.30;44.89;98659.41;;;;-52
2021/01/21 03:41:46;;;;;;;1.50;1.40;;;;;;;17.28;44.87;98660.05;;;;-52
2021/01/21 03:44:46;;;;;;;1.51;1.41;;;;;;;17.28;44.92;98659.74;;;;-51
2021/01/21 03:47:46;;;;;;;1.62;1.49;;;;;;;17.26;44.94;98659.95;;;;-52
2021/01/21 03:50:46;;;;;;;1.70;1.60;;;;;;;17.25;44.92;98664.48;;;;-51
2021/01/21 03:53:46;;;;;;;1.58;1.48;;;;;;;17.25;44.97;98659.80;;;;-50
2021/01/21 03:56:46;;;;;;;1.70;1.60;;;;;;;17.24;44.92;98658.73;;;;-51
2021/01/21 03:59:46;;;;;;;1.53;1.42;;;;;;;17.23;44.95;98663.20;;;;-51
2021/01/21 04:02:46;;;;;;;1.51;1.41;;;;;;;17.23;44.91;98659.91;;;;-52
2021/01/21 04:05:46;;;;;;;1.67;1.57;;;;;;;17.22;44.87;98656.67;;;;-51
2021/01/21 04:08:46;;;;;;;1.60;1.50;;;;;;;17.20;44.98;98661.97;;;;-52
2021/01/21 04:11:46;;;;;;;1.53;1.43;;;;;;;17.20;44.90;98661.88;;;;-52
2021/01/21 04:14:46;;;;;;;1.61;1.51;;;;;;;17.19;44.92;98663.28;;;;-51
2021/01/21 04:17:46;;;;;;;1.50;1.40;;;;;;;17.17;44.96;98664.17;;;;-52
2021/01/21 04:20:46;;;;;;;1.50;1.40;;;;;;;17.17;44.91;98662.89;;;;-53
2021/01/21 04:23:46;;;;;;;1.59;1.49;;;;;;;17.16;44.93;98652.55;;;;-53
2021/01/21 04:26:46;;;;;;;1.52;1.42;;;;;;;17.16;44.99;98657.15;;;;-51
2021/01/21 04:29:46;;;;;;;1.56;1.46;;;;;;;17.14;44.99;98655.97;;;;-51
2021/01/21 04:32:46;;;;;;;1.58;1.48;;;;;;;17.13;45.00;98640.12;;;;-51
2021/01/21 04:35:46;;;;;;;1.50;1.40;;;;;;;17.13;44.92;98648.61;;;;-51
2021/01/21 04:38:46;;;;;;;1.50;1.40;;;;;;;17.12;45.00;98660.20;;;;-51
2021/01/21 04:41:46;;;;;;;1.60;1.50;;;;;;;17.12;44.96;98660.78;;;;-53
2021/01/21 04:44:46;;;;;;;1.60;1.50;;;;;;;17.12;44.97;98665.14;;;;-53
2021/01/21 04:47:46;;;;;;;1.51;1.41;;;;;;;17.10;45.06;98671.40;;;;-53
2021/01/21 04:50:46;;;;;;;1.40;1.30;;;;;;;17.10;45.00;98666.69;;;;-53
2021/01/21 04:53:46;;;;;;;1.50;1.40;;;;;;;17.09;44.97;98669.70;;;;-53
2021/01/21 04:56:46;;;;;;;1.53;1.40;;;;;;;17.08;45.04;98664.29;;;;-53
2021/01/21 04:59:46;;;;;;;1.50;1.40;;;;;;;17.07;45.03;98664.55;;;;-52
2021/01/21 05:02:46;;;;;;;1.59;1.49;;;;;;;17.06;45.07;98664.23;;;;-51
2021/01/21 05:05:46;;;;;;;1.45;1.35;;;;;;;17.06;44.97;98660.45;;;;-52
2021/01/21 05:08:46;;;;;;;1.51;1.41;;;;;;;17.05;44.98;98660.52;;;;-51
2021/01/21 05:11:46;;;;;;;1.50;1.40;;;;;;;17.04;45.05;98652.54;;;;-51
2021/01/21 05:14:46;;;;;;;1.41;1.31;;;;;;;17.04;45.02;98651.26;;;;-51
2021/01/21 05:17:46;;;;;;;1.43;1.33;;;;;;;17.03;45.03;98645.66;;;;-52
2021/01/21 05:20:46;;;;;;;1.50;1.40;;;;;;;17.02;45.06;98638.72;;;;-51
2021/01/21 05:23:46;;;;;;;1.50;1.40;;;;;;;17.02;45.06;98638.66;;;;-53
2021/01/21 05:26:46;;;;;;;1.42;1.32;;;;;;;17.00;45.05;98646.28;;;;-53
2021/01/21 05:29:46;;;;;;;1.38;1.28;;;;;;;17.00;45.03;98657.84;;;;-53
2021/01/21 05:32:46;;;;;;;1.41;1.30;;;;;;;17.00;45.09;98654.53;;;;-53
2021/01/21 05:35:46;;;;;;;1.41;1.31;;;;;;;16.98;45.03;98650.35;;;;-52
2021/01/21 05:38:46;;;;;;;1.34;1.24;;;;;;;16.98;45.06;98661.44;;;;-53
2021/01/21 05:41:46;;;;;;;1.40;1.30;;;;;;;16.97;45.07;98652.85;;;;-53
2021/01/21 05:44:46;;;;;;;1.37;1.27;;;;;;;16.96;45.10;98657.32;;;;-52
2021/01/21 05:47:46;;;;;;;1.40;1.30;;;;;;;16.95;45.09;98654.81;;;;-53
2021/01/21 05:50:46;;;;;;;1.31;1.21;;;;;;;16.95;45.09;98646.73;;;;-53
2021/01/21 05:53:46;;;;;;;1.40;1.30;;;;;;;16.95;45.08;98648.52;;;;-54
2021/01/21 05:56:46;;;;;;;1.40;1.30;;;;;;;16.94;45.06;98645.95;;;;-53
2021/01/21 05:59:46;;;;;;;1.50;1.40;;;;;;;16.94;45.07;98636.48;;;;-54
2021/01/21 06:02:46;;;;;;;1.45;1.35;;;;;;;16.93;45.08;98632.36;;;;-53
2021/01/21 06:05:46;;;;;;;1.37;1.23;;;;;;;16.92;45.09;98630.11;;;;-53
2021/01/21 06:08:46;;;;;;;1.40;1.30;;;;;;;16.91;45.14;98634.73;;;;-54
2021/01/21 06:11:46;;;;;;;1.37;1.27;;;;;;;16.91;45.15;98627.63;;;;-53
2021/01/21 06:14:46;;;;;;;1.39;1.29;;;;;;;16.90;45.16;98620.36;;;;-51
2021/01/21 06:17:46;;;;;;;1.41;1.31;;;;;;;16.90;45.04;98618.41;;;;-51
2021/01/21 06:20:46;;;;;;;1.28;1.19;;;;;;;16.91;45.15;98620.09;;;;-51
2021/01/21 06:23:46;;;;;;;1.37;1.27;;;;;;;16.92;45.19;98627.45;;;;-51
2021/01/21 06:26:46;;;;;;;1.35;1.25;;;;;;;16.92;45.14;98627.59;;;;-51
2021/01/21 06:29:46;;;;;;;1.39;1.29;;;;;;;16.94;45.11;98633.33;;;;-51
2021/01/21 06:32:46;;;;;;;1.39;1.29;;;;;;;16.96;45.14;98638.06;;;;-51
2021/01/21 06:35:46;;;;;;;1.33;1.23;;;;;;;16.98;45.20;98628.66;;;;-51
2021/01/21 06:38:46;;;;;;;1.34;1.24;;;;;;;17.01;45.19;98630.47;;;;-51
2021/01/21 06:41:46;;;;;;;1.27;1.17;;;;;;;17.04;45.20;98621.31;;;;-52
2021/01/21 06:44:46;;;;;;;1.38;1.28;;;;;;;17.07;45.20;98635.01;;;;-52
2021/01/21 06:47:46;;;;;;;1.33;1.23;;;;;;;17.11;45.18;98633.34;;;;-52
2021/01/21 06:50:46;;;;;;;1.40;1.30;;;;;;;17.14;45.15;98638.25;;;;-52
2021/01/21 06:53:46;;;;;;;5.86;1.61;;;;;;;17.13;44.68;98634.53;;;;-52
2021/01/21 06:56:46;;;;;;;1.48;1.36;;;;;;;17.10;44.47;98625.91;;;;-51
2021/01/21 06:59:46;;;;;;;2.38;1.31;;;;;;;17.05;43.74;98631.00;;;;-51
2021/01/21 07:02:46;;;;;;;2.36;1.41;;;;;;;17.01;43.60;98630.14;;;;-51
2021/01/21 07:05:46;;;;;;;1.77;1.26;;;;;;;16.99;43.63;98630.59;;;;-51
2021/01/21 07:08:46;;;;;;;6.85;1.47;;;;;;;17.04;43.92;98628.43;;;;-48
2021/01/21 07:11:46;;;;;;;2.14;1.49;;;;;;;17.11;44.24;98631.39;;;;-49
2021/01/21 07:14:48;;;;;;;2.81;1.40;;;;;;;17.17;44.46;98631.81;;;;-47
2021/01/21 07:17:46;;;;;;;1.75;1.31;;;;;;;17.23;44.52;98632.29;;;;-52
2021/01/21 07:20:46;;;;;;;2.99;1.50;;;;;;;17.25;44.38;98638.27;;;;-52
2021/01/21 07:23:46;;;;;;;2.15;1.49;;;;;;;17.27;44.46;98638.70;;;;-52
2021/01/21 07:26:46;;;;;;;2.95;1.25;;;;;;;17.29;44.52;98636.67;;;;-52
2021/01/21 07:29:46;;;;;;;2.41;1.39;;;;;;;17.31;44.55;98632.52;;;;-52
2021/01/21 07:32:46;;;;;;;2.57;1.40;;;;;;;17.32;44.57;98634.59;;;;-52
2021/01/21 07:35:46;;;;;;;2.19;1.41;;;;;;;17.34;44.56;98646.07;;;;-52
2021/01/21 07:38:46;;;;;;;1.87;1.21;;;;;;;17.36;44.59;98647.50;;;;-52
2021/01/21 07:41:46;;;;;;;2.94;1.48;;;;;;;17.37;44.57;98637.13;;;;-52
2021/01/21 07:44:46;;;;;;;2.55;1.47;;;;;;;17.39;44.58;98639.34;;;;-52
2021/01/21 07:47:47;;;;;;;1.58;1.30;;;;;;;17.41;44.61;98642.64;;;;-52
2021/01/21 07:50:46;;;;;;;1.25;1.15;;;;;;;17.41;44.60;98634.22;;;;-52
2021/01/21 07:53:46;;;;;;;2.33;1.32;;;;;;;17.42;44.58;98641.19;;;;-53
2021/01/21 07:56:46;;;;;;;1.42;1.29;;;;;;;17.42;44.60;98644.02;;;;-52
2021/01/21 07:59:46;;;;;;;1.97;1.25;;;;;;;17.43;44.62;98635.66;;;;-52
2021/01/21 08:02:46;;;;;;;1.87;1.24;;;;;;;17.44;44.59;98623.25;;;;-52
2021/01/21 08:05:46;;;;;;;1.23;1.14;;;;;;;17.45;44.62;98620.40;;;;-51
2021/01/21 08:08:46;;;;;;;2.06;1.26;;;;;;;17.44;44.65;98614.50;;;;-53
2021/01/21 08:11:46;;;;;;;2.24;1.31;;;;;;;17.45;44.57;98608.16;;;;-52
2021/01/21 08:14:46;;;;;;;1.83;1.20;;;;;;;17.45;44.60;98615.80;;;;-52
2021/01/21 08:17:48;;;;;;;1.46;1.32;;;;;;;17.46;44.63;98608.25;;;;-52
2021/01/21 08:20:46;;;;;;;2.64;1.21;;;;;;;17.45;44.69;98620.95;;;;-52
2021/01/21 08:23:46;;;;;;;1.32;1.21;;;;;;;17.46;44.57;98625.00;;;;-52
2021/01/21 08:26:46;;;;;;;1.30;1.20;;;;;;;17.46;44.88;98613.19;;;;-54
2021/01/21 08:29:46;;;;;;;7.44;1.63;;;;;;;17.47;44.87;98622.96;;;;-53
2021/01/21 08:32:46;;;;;;;3.37;1.44;;;;;;;17.48;44.61;98613.31;;;;-53
2021/01/21 08:35:46;;;;;;;2.25;1.41;;;;;;;17.48;44.69;98617.05;;;;-53
2021/01/21 08:38:46;;;;;;;1.57;1.35;;;;;;;17.48;44.51;98635.75;;;;-53
2021/01/21 08:41:46;;;;;;;2.50;1.26;;;;;;;17.48;44.59;98625.88;;;;-52
2021/01/21 08:44:46;;;;;;;2.77;1.31;;;;;;;17.48;44.65;98626.99;;;;-53
2021/01/21 08:47:46;;;;;;;2.63;1.33;;;;;;;17.48;44.61;98633.56;;;;-53
2021/01/21 08:50:46;;;;;;;1.64;1.36;;;;;;;17.47;44.56;98631.06;;;;-53
2021/01/21 08:53:46;;;;;;;2.67;1.48;;;;;;;17.49;44.78;98634.91;;;;-46
2021/01/21 08:56:46;;;;;;;3.67;1.30;;;;;;;17.50;45.21;98639.54;;;;-53
2021/01/21 08:59:46;;;;;;;3.56;1.47;;;;;;;17.51;45.35;98647.52;;;;-46
2021/01/21 09:02:46;;;;;;;4.69;1.58;;;;;;;17.52;45.19;98656.59;;;;-51
2021/01/21 09:05:46;;;;;;;1.99;1.51;;;;;;;17.55;45.37;98653.92;;;;-53
2021/01/21 09:08:46;;;;;;;2.56;1.40;;;;;;;17.59;45.73;98661.09;;;;-48
2021/01/21 09:11:46;;;;;;;6.27;1.41;;;;;;;17.63;45.66;98661.66;;;;-50
2021/01/21 09:14:46;;;;;;;1.73;1.31;;;;;;;17.67;46.10;98662.03;;;;-50
2021/01/21 09:17:46;;;;;;;3.78;1.48;;;;;;;17.71;45.97;98663.41;;;;-50
2021/01/21 09:20:47;;;;;;;3.42;1.30;;;;;;;17.76;45.83;98670.88;;;;-50
2021/01/21 09:23:46;;;;;;;6.71;1.56;;;;;;;17.81;46.17;98666.67;;;;-52
2021/01/21 09:26:46;;;;;;;1.72;1.37;;;;;;;17.86;45.89;98676.17;;;;-48
2021/01/21 09:29:46;;;;;;;1.91;1.33;;;;;;;17.92;46.09;98679.26;;;;-50
2021/01/21 09:32:46;;;;;;;1.51;1.26;;;;;;;17.98;45.86;98693.10;;;;-63
2021/01/21 09:35:46;;;;;;;5.18;1.35;;;;;;;18.03;46.17;98695.83;;;;-54
2021/01/21 09:38:46;;;;;;;1.98;1.40;;;;;;;18.08;46.15;98699.34;;;;-51
2021/01/21 09:41:46;;;;;;;2.23;1.25;;;;;;;18.12;45.78;98711.37;;;;-58
2021/01/21 09:44:46;;;;;;;1.43;1.25;;;;;;;18.15;45.94;98713.48;;;;-52
2021/01/21 09:47:46;;;;;;;1.83;1.47;;;;;;;18.20;46.12;98720.70;;;;-52
2021/01/21 09:50:46;;;;;;;1.41;1.27;;;;;;;18.25;46.08;98725.39;;;;-59
2021/01/21 09:53:46;;;;;;;2.95;1.43;;;;;;;18.29;45.62;98730.11;;;;-51
2021/01/21 09:56:47;;;;;;;3.30;1.23;;;;;;;18.32;45.51;98738.10;;;;-51
2021/01/21 09:59:46;;;;;;;2.45;1.30;;;;;;;18.32;45.38;98730.80;;;;-52
2021/01/21 10:02:46;;;;;;;6.81;1.47;;;;;;;18.37;45.67;98744.43;;;;-53
2021/01/21 10:05:48;;;;;;;2.95;1.31;;;;;;;18.40;45.66;98735.03;;;;-52
2021/01/21 10:08:46;;;;;;;1.49;1.30;;;;;;;18.44;45.66;98742.04;;;;-49
2021/01/21 10:11:46;;;;;;;2.09;1.20;;;;;;;18.47;45.64;98739.88;;;;-50
2021/01/21 10:14:46;;;;;;;1.54;1.22;;;;;;;18.52;45.76;98735.16;;;;-49
2021/01/21 10:17:46;;;;;;;1.91;1.19;;;;;;;18.56;45.71;98744.41;;;;-57
2021/01/21 10:20:46;;;;;;;2.16;1.31;;;;;;;18.60;45.63;98742.66;;;;-52
2021/01/21 10:23:46;;;;;;;2.67;1.21;;;;;;;18.65;45.76;98735.17;;;;-51
2021/01/21 10:26:46;;;;;;;2.01;1.27;;;;;;;18.68;45.81;98732.55;;;;-55
2021/01/21 10:29:46;;;;;;;4.36;1.46;;;;;;;18.71;45.35;98740.19;;;;-52
2021/01/21 10:32:46;;;;;;;3.21;1.23;;;;;;;18.74;45.60;98736.64;;;;-61
2021/01/21 10:35:46;;;;;;;1.33;1.22;;;;;;;18.76;45.84;98727.84;;;;-58
2021/01/21 10:38:46;;;;;;;2.76;1.30;;;;;;;18.78;45.50;98731.28;;;;-57
2021/01/21 10:41:46;;;;;;;2.74;1.22;;;;;;;18.74;45.08;98727.64;;;;-54
2021/01/21 10:44:46;;;;;;;2.49;1.14;;;;;;;18.73;44.59;98727.66;;;;-53
2021/01/21 10:47:46;;;;;;;3.70;1.38;;;;;;;18.76;44.84;98726.14;;;;-51
2021/01/21 10:50:46;;;;;;;2.47;1.20;;;;;;;18.79;45.29;98720.92;;;;-52
2021/01/21 10:53:46;;;;;;;4.95;1.30;;;;;;;18.83;45.37;98715.40;;;;-52
2021/01/21 10:56:46;;;;;;;3.82;1.27;;;;;;;18.82;44.99;98728.48;;;;-60
2021/01/21 10:59:46;;;;;;;1.93;1.31;;;;;;;18.80;44.77;98733.33;;;;-60
2021/01/21 11:02:46;;;;;;;2.96;1.34;;;;;;;18.81;44.83;98738.88;;;;-61
2021/01/21 11:05:46;;;;;;;3.42;1.39;;;;;;;18.81;44.80;98737.09;;;;-60
2021/01/21 11:08:46;;;;;;;2.31;1.11;;;;;;;18.82;44.79;98738.87;;;;-53
2021/01/21 11:11:46;;;;;;;1.40;1.20;;;;;;;18.81;44.71;98750.50;;;;-62
2021/01/21 11:14:46;;;;;;;2.41;1.20;;;;;;;18.81;44.63;98739.39;;;;-63
2021/01/21 11:17:46;;;;;;;1.63;1.20;;;;;;;18.81;44.61;98737.69;;;;-60
2021/01/21 11:20:46;;;;;;;2.27;1.23;;;;;;;18.82;44.72;98740.16;;;;-59
2021/01/21 11:23:46;;;;;;;2.57;1.16;;;;;;;18.83;44.67;98741.38;;;;-60
2021/01/21 11:26:46;;;;;;;1.85;1.24;;;;;;;18.83;44.56;98737.89;;;;-54
2021/01/21 11:29:46;;;;;;;1.69;1.20;;;;;;;18.83;44.54;98737.89;;;;-53
2021/01/21 11:32:46;;;;;;;2.03;1.17;;;;;;;18.83;44.60;98743.87;;;;-54
2021/01/21 11:35:46;;;;;;;2.47;1.19;;;;;;;18.84;44.50;98739.98;;;;-60
2021/01/21 11:38:46;;;;;;;1.85;1.20;;;;;;;18.86;44.49;98741.31;;;;-63
2021/01/21 11:41:46;;;;;;;1.59;1.11;;;;;;;18.85;44.47;98753.99;;;;-54
2021/01/21 11:44:46;;;;;;;1.65;1.01;;;;;;;18.86;44.50;98745.36;;;;-63
2021/01/21 11:47:47;;;;;;;2.03;0.94;;;;;;;18.87;44.50;98765.50;;;;-61
2021/01/21 11:50:46;;;;;;;1.24;1.14;;;;;;;18.86;44.45;98771.75;;;;-63
2021/01/21 11:53:46;;;;;;;1.16;1.07;;;;;;;18.87;44.44;98767.50;;;;-61
2021/01/21 11:56:46;;;;;;;1.46;1.13;;;;;;;18.88;44.43;98775.76;;;;-61
2021/01/21 11:59:46;;;;;;;2.54;1.15;;;;;;;18.89;44.46;98773.09;;;;-63
2021/01/21 12:02:46;;;;;;;1.32;1.03;;;;;;;18.90;44.40;98776.39;;;;-59
2021/01/21 12:05:46;;;;;;;2.12;1.21;;;;;;;18.89;44.40;98776.31;;;;-59
2021/01/21 12:08:46;;;;;;;1.31;1.17;;;;;;;18.90;44.41;98773.36;;;;-60
2021/01/21 12:11:46;;;;;;;1.13;1.00;;;;;;;18.92;44.46;98778.52;;;;-60
2021/01/21 12:14:46;;;;;;;1.20;1.09;;;;;;;18.93;44.41;98790.38;;;;-60
2021/01/21 12:17:46;;;;;;;1.05;1.01;;;;;;;18.94;44.41;98809.11;;;;-61
2021/01/21 12:20:46;;;;;;;1.20;1.10;;;;;;;18.94;44.40;98813.56;;;;-63
2021/01/21 12:23:46;;;;;;;1.08;1.07;;;;;;;18.95;44.45;98818.73;;;;-61
2021/01/21 12:26:46;;;;;;;1.20;1.10;;;;;;;18.95;44.45;98816.14;;;;-53
2021/01/21 12:29:46;;;;;;;2.97;1.20;;;;;;;18.97;44.41;98829.03;;;;-62
2021/01/21 12:32:46;;;;;;;4.29;1.18;;;;;;;19.00;44.59;98844.64;;;;-53
2021/01/21 12:35:46;;;;;;;1.34;1.09;;;;;;;19.03;44.79;98844.89;;;;-53
2021/01/21 12:38:46;;;;;;;1.65;1.10;;;;;;;19.07;44.86;98838.66;;;;-49
2021/01/21 12:41:46;;;;;;;1.35;1.07;;;;;;;19.08;44.85;98843.52;;;;-51
2021/01/21 12:44:46;;;;;;;1.63;1.15;;;;;;;19.11;44.90;98850.02;;;;-62
2021/01/21 12:47:46;;;;;;;1.92;1.35;;;;;;;19.12;44.96;98846.84;;;;-65
2021/01/21 12:50:46;;;;;;;2.02;1.03;;;;;;;19.15;44.96;98856.12;;;;-53
2021/01/21 12:53:46;;;;;;;2.23;1.09;;;;;;;19.16;44.65;98865.78;;;;-55
2021/01/21 12:56:46;;;;;;;2.93;1.23;;;;;;;19.15;44.29;98864.91;;;;-53
2021/01/21 12:59:46;;;;;;;2.55;1.01;;;;;;;19.14;44.21;98862.34;;;;-53
2021/01/21 13:02:47;;;;;;;8.44;1.17;;;;;;;19.13;44.54;98851.95;;;;-48
2021/01/21 13:05:46;;;;;;;4.25;1.24;;;;;;;19.15;44.85;98859.15;;;;-55
2021/01/21 13:08:46;;;;;;;2.57;1.11;;;;;;;19.17;44.88;98850.98;;;;-51
2021/01/21 13:11:46;;;;;;;4.95;1.13;;;;;;;19.22;45.04;98847.66;;;;-51
2021/01/21 13:14:46;;;;;;;2.46;1.09;;;;;;;19.23;45.25;98848.27;;;;-54
2021/01/21 13:17:46;;;;;;;7.39;1.17;;;;;;;19.24;45.03;98838.27;;;;-57
2021/01/21 13:20:46;;;;;;;6.78;1.25;;;;;;;19.27;45.17;98841.55;;;;-58
2021/01/21 13:23:47;;;;;;;3.42;1.19;;;;;;;19.33;45.57;98841.27;;;;-50
2021/01/21 13:26:46;;;;;;;3.25;1.47;;;;;;;19.33;45.24;98835.27;;;;-52
2021/01/21 13:29:46;;;;;;;3.05;1.05;;;;;;;19.36;45.40;98835.11;;;;-59
2021/01/21 13:32:46;;;;;;;3.76;1.25;;;;;;;19.39;45.49;98845.45;;;;-54
2021/01/21 13:35:48;;;;;;;6.09;1.21;;;;;;;19.40;45.47;98843.07;;;;-60
2021/01/21 13:38:46;;;;;;;2.59;1.23;;;;;;;19.41;45.45;98848.52;;;;-47
2021/01/21 13:41:46;;;;;;;3.03;1.11;;;;;;;19.45;45.17;98853.15;;;;-56
2021/01/21 13:44:46;;;;;;;4.46;1.37;;;;;;;19.45;45.17;98846.88;;;;-57
2021/01/21 13:47:46;;;;;;;4.71;1.43;;;;;;;19.44;45.04;98843.24;;;;-51
2021/01/21 13:50:46;;;;;;;2.78;1.37;;;;;;;19.43;44.98;98840.17;;;;-52
2021/01/21 13:53:46;;;;;;;4.29;1.37;;;;;;;19.45;45.05;98843.48;;;;-53
2021/01/21 13:56:46;;;;;;;2.98;1.58;;;;;;;19.46;44.94;98841.67;;;;-58
2021/01/21 13:59:46;;;;;;;4.60;1.58;;;;;;;19.48;44.74;98836.83;;;;-57
2021/01/21 14:02:46;;;;;;;5.91;1.49;;;;;;;19.48;44.68;98829.42;;;;-58
2021/01/21 14:05:46;;;;;;;5.57;1.73;;;;;;;19.47;44.67;98828.58;;;;-58
2021/01/21 14:08:46;;;;;;;5.03;1.66;;;;;;;19.46;44.56;98826.54;;;;-57
2021/01/21 14:11:46;;;;;;;4.25;1.50;;;;;;;19.47;44.62;98825.41;;;;-51
2021/01/21 14:14:46;;;;;;;5.89;1.66;;;;;;;19.49;44.75;98823.42;;;;-53
2021/01/21 14:17:46;;;;;;;7.43;1.56;;;;;;;19.48;44.83;98822.51;;;;-46
2021/01/21 14:20:46;;;;;;;4.05;1.51;;;;;;;19.51;45.00;98821.02;;;;-52
2021/01/21 14:23:46;;;;;;;3.59;1.43;;;;;;;19.53;45.13;98817.89;;;;-47
2021/01/21 14:26:46;;;;;;;4.42;1.44;;;;;;;19.55;45.14;98814.36;;;;-51
2021/01/21 14:29:46;;;;;;;2.83;1.41;;;;;;;19.58;45.07;98811.92;;;;-51
2021/01/21 14:32:46;;;;;;;4.94;1.50;;;;;;;19.59;45.17;98810.44;;;;-59
2021/01/21 14:35:46;;;;;;;3.53;1.44;;;;;;;19.62;45.26;98810.81;;;;-55
2021/01/21 14:38:46;;;;;;;3.46;1.53;;;;;;;19.61;45.33;98811.30;;;;-47
2021/01/21 14:41:46;;;;;;;2.57;1.39;;;;;;;19.64;45.38;98811.16;;;;-54
2021/01/21 14:44:46;;;;;;;6.45;1.46;;;;;;;19.66;45.35;98802.84;;;;-50
2021/01/21 14:47:46;;;;;;;3.29;1.23;;;;;;;19.65;45.23;98801.05;;;;-51
2021/01/21 14:50:46;;;;;;;4.72;1.55;;;;;;;19.66;45.30;98807.45;;;;-56
2021/01/21 14:53:46;;;;;;;2.41;1.30;;;;;;;19.67;45.12;98799.31;;;;-56
2021/01/21 14:56:46;;;;;;;3.01;1.53;;;;;;;19.69;45.28;98787.81;;;;-58
2021/01/21 14:59:46;;;;;;;2.48;1.49;;;;;;;19.71;44.92;98781.94;;;;-59
2021/01/21 15:02:46;;;;;;;2.46;1.43;;;;;;;19.68;44.78;98790.19;;;;-51
2021/01/21 15:05:46;;;;;;;3.95;1.44;;;;;;;19.71;44.81;98783.49;;;;-56
2021/01/21 15:08:46;;;;;;;5.09;1.59;;;;;;;19.72;44.71;98784.62;;;;-52
2021/01/21 15:11:46;;;;;;;2.80;1.47;;;;;;;19.73;44.63;98782.89;;;;-57
2021/01/21 15:14:46;;;;;;;3.33;1.45;;;;;;;19.73;44.62;98787.58;;;;-52
2021/01/21 15:17:46;;;;;;;5.79;1.70;;;;;;;19.74;44.51;98782.47;;;;-52
2021/01/21 15:20:46;;;;;;;3.29;1.51;;;;;;;19.74;44.51;98782.53;;;;-56
2021/01/21 15:23:46;;;;;;;4.21;1.60;;;;;;;19.75;44.47;98790.54;;;;-52
2021/01/21 15:26:46;;;;;;;3.92;1.63;;;;;;;19.75;44.42;98789.02;;;;-50
2021/01/21 15:29:46;;;;;;;4.01;1.51;;;;;;;19.73;44.47;98784.98;;;;-50
2021/01/21 15:32:46;;;;;;;8.93;1.69;;;;;;;19.74;44.56;98779.28;;;;-62
2021/01/21 15:35:46;;;;;;;10.64;2.12;;;;;;;19.75;44.74;98778.34;;;;-63
2021/01/21 15:38:46;;;;;;;5.53;1.80;;;;;;;19.75;44.96;98769.73;;;;-61
2021/01/21 15:41:46;;;;;;;3.43;1.78;;;;;;;19.78;45.18;98761.58;;;;-60
2021/01/21 15:44:46;;;;;;;4.73;1.97;;;;;;;19.79;45.18;98749.48;;;;-53
2021/01/21 15:47:46;;;;;;;3.77;1.60;;;;;;;19.82;44.91;98754.33;;;;-49
2021/01/21 15:50:46;;;;;;;10.54;1.81;;;;;;;19.83;44.96;98741.61;;;;-50
2021/01/21 15:53:46;;;;;;;6.79;1.67;;;;;;;19.84;44.91;98736.66;;;;-50
2021/01/21 15:56:46;;;;;;;3.86;1.71;;;;;;;19.86;45.05;98741.38;;;;-51
2021/01/21 15:59:46;;;;;;;2.63;1.64;;;;;;;19.86;45.06;98735.31;;;;-48
2021/01/21 16:02:46;;;;;;;4.67;1.94;;;;;;;19.86;44.97;98732.36;;;;-51
2021/01/21 16:05:46;;;;;;;4.74;1.93;;;;;;;19.85;45.04;98723.11;;;;-56
2021/01/21 16:08:46;;;;;;;4.58;1.83;;;;;;;19.88;44.77;98721.19;;;;-53
2021/01/21 16:11:46;;;;;;;6.53;2.00;;;;;;;19.86;44.85;98705.39;;;;-57
2021/01/21 16:14:46;;;;;;;3.25;2.15;;;;;;;19.87;44.88;98698.94;;;;-49
2021/01/21 16:17:46;;;;;;;8.92;2.03;;;;;;;19.86;44.69;98707.91;;;;-49
2021/01/21 16:20:46;;;;;;;3.92;2.09;;;;;;;19.86;44.65;98701.73;;;;-51
2021/01/21 16:23:46;;;;;;;5.69;1.89;;;;;;;19.86;44.58;98700.10;;;;-52
2021/01/21 16:26:46;;;;;;;4.91;1.85;;;;;;;19.86;44.59;98701.47;;;;-56
2021/01/21 16:29:47;;;;;;;3.75;1.89;;;;;;;19.87;44.54;98687.61;;;;-49
2021/01/21 16:32:46;;;;;;;3.55;1.81;;;;;;;19.88;44.51;98686.22;;;;-49
2021/01/21 16:35:46;;;;;;;3.23;1.69;;;;;;;19.88;44.52;98686.48;;;;-49
2021/01/21 16:38:46;;;;;;;2.73;1.81;;;;;;;19.89;44.55;98683.98;;;;-49
2021/01/21 16:41:46;;;;;;;2.63;1.70;;;;;;;19.88;44.47;98683.56;;;;-49
2021/01/21 16:44:46;;;;;;;4.15;1.70;;;;;;;19.88;44.45;98677.44;;;;-52
2021/01/21 16:47:46;;;;;;;3.11;1.70;;;;;;;19.88;44.42;98668.03;;;;-51
2021/01/21 16:50:46;;;;;;;5.55;1.66;;;;;;;19.88;44.41;98657.39;;;;-52
2021/01/21 16:53:46;;;;;;;4.96;1.67;;;;;;;19.89;44.56;98658.55;;;;-51
2021/01/21 16:56:46;;;;;;;3.97;1.88;;;;;;;19.89;44.67;98652.87;;;;-54